Time;durP1;ratioP1;P1;durP2;ratioP2;P2;SDS_P1;SDS_P2;PMS_P1;PMS_P2;Temp;Humidity;BMP_temperature;BMP_pressure;BME280_temperature;BME280_humidity;BME280_pressure;Samples;Min_cycle;Max_cycle;Signal;HPM_P1;HPM_P2
2022/02/01 00:04:16;;;;;;;6.92;4.78;;;;;;;6.91;48.11;100710.86;1663017;85;21108;-70
2022/02/01 00:09:13;;;;;;;9.88;5.08;;;;;;;6.89;48.13;100712.60;1661645;85;21033;-69
2022/02/01 00:11:43;;;;;;;10.28;4.62;;;;;;;6.87;48.07;100724.27;1662799;85;21095;-70
2022/02/01 00:19:34;;;;;;;8.63;5.37;;;;;;;6.81;47.95;100732.48;1590167;87;21612;-70
2022/02/01 00:35:33;;;;;;;8.33;4.67;;;;;;;6.67;46.88;100730.44;1595905;87;21085;-69
2022/02/01 00:40:22;;;;;;;8.55;4.87;;;;;;;6.64;46.49;100723.98;1585074;89;21055;-69
2022/02/01 00:42:49;;;;;;;10.25;5.67;;;;;;;6.62;46.42;100714.08;1574064;89;21083;-70
2022/02/01 00:45:15;;;;;;;12.53;6.40;;;;;;;6.59;46.41;100715.81;1583684;90;21036;-70
2022/02/01 00:47:43;;;;;;;10.70;6.85;;;;;;;6.57;46.62;100718.84;1583175;89;21730;-70
2022/02/01 00:52:39;;;;;;;8.78;5.55;;;;;;;6.53;47.03;100711.98;1558337;92;21097;-69
2022/02/01 00:55:08;;;;;;;8.68;5.20;;;;;;;6.49;47.08;100712.86;1574289;90;21056;-69
2022/02/01 00:57:34;;;;;;;8.20;4.83;;;;;;;6.46;47.29;100724.53;1577157;90;21114;-69
2022/02/01 01:00:01;;;;;;;8.10;4.78;;;;;;;6.44;47.46;100724.97;1576545;89;21114;-70
2022/02/01 01:02:27;;;;;;;7.45;4.55;;;;;;;6.41;47.61;100723.68;1588188;90;22188;-70
2022/02/01 01:04:54;;;;;;;10.72;5.28;;;;;;;6.40;47.77;100730.16;1584120;90;21079;-70
2022/02/01 01:07:20;;;;;;;8.25;4.95;;;;;;;6.38;47.85;100732.77;1596754;87;21541;-70
2022/02/01 01:09:47;;;;;;;7.65;4.80;;;;;;;6.36;47.87;100731.05;1605300;87;21515;-70
2022/02/01 01:12:15;;;;;;;8.85;4.75;;;;;;;6.35;47.88;100740.52;1573060;89;21563;-70
2022/02/01 01:44:34;;;;;;;9.15;4.70;;;;;;;6.08;47.70;100747.09;1622418;86;21046;-69
2022/02/01 01:55:13;;;;;;;9.68;5.50;;;;;;;6.02;47.89;100743.23;1667323;83;21177;-69
2022/02/01 01:57:40;;;;;;;10.40;5.08;;;;;;;6.00;47.82;100742.38;1728303;80;21549;-69
2022/02/01 02:00:14;;;;;;;10.18;5.28;;;;;;;5.98;47.59;100750.56;1753579;80;21020;-70
2022/02/01 02:02:39;;;;;;;10.48;6.20;;;;;;;5.97;47.57;100752.74;1768235;80;20999;-70
2022/02/01 02:05:07;;;;;;;8.18;5.45;;;;;;;5.97;47.52;100754.45;1771426;80;21090;-70
2022/02/01 02:07:33;;;;;;;10.08;5.60;;;;;;;5.96;47.33;100758.75;1757593;81;21006;-70
2022/02/01 02:10:02;;;;;;;10.70;5.85;;;;;;;5.95;47.29;100755.77;1764373;80;21035;-69
2022/02/01 02:12:51;;;;;;;9.08;5.45;;;;;;;5.95;47.29;100754.47;1763069;80;21053;-69
2022/02/01 02:15:00;;;;;;;7.60;4.62;;;;;;;5.95;47.23;100763.51;1763132;80;21536;-70
2022/02/01 02:17:27;;;;;;;7.75;4.72;;;;;;;5.95;47.32;100760.92;1764912;80;21069;-69
2022/02/01 02:19:53;;;;;;;8.20;5.05;;;;;;;5.95;47.35;100762.22;1764654;80;21455;-69
2022/02/01 02:22:22;;;;;;;9.88;4.85;;;;;;;5.95;47.30;100764.80;1757416;81;21106;-71
2022/02/01 02:24:48;;;;;;;9.35;5.33;;;;;;;5.94;47.25;100760.48;1758468;80;21475;-70
2022/02/01 02:27:14;;;;;;;10.20;5.08;;;;;;;5.94;47.35;100757.91;1756006;80;21535;-69
2022/02/01 02:29:41;;;;;;;8.68;5.00;;;;;;;5.95;47.39;100763.94;1763057;80;20987;-70
2022/02/01 02:32:09;;;;;;;8.48;5.12;;;;;;;5.93;47.35;100758.78;1754706;80;21007;-70
2022/02/01 02:34:35;;;;;;;8.50;4.60;;;;;;;5.94;47.44;100771.23;1760578;80;21030;-69
2022/02/01 02:37:11;;;;;;;9.05;4.65;;;;;;;5.93;47.20;100763.95;1758988;80;21037;-69
2022/02/01 02:39:35;;;;;;;8.48;4.62;;;;;;;5.93;47.19;100769.53;1767147;80;21022;-69
2022/02/01 02:42:13;;;;;;;8.55;5.40;;;;;;;5.92;47.17;100777.70;1765237;80;21018;-69
2022/02/01 02:47:29;;;;;;;9.33;5.10;;;;;;;5.89;47.32;100782.89;1758578;80;21538;-70
2022/02/01 02:49:56;;;;;;;8.03;5.42;;;;;;;5.89;47.49;100785.91;1739959;80;21089;-69
2022/02/01 02:52:26;;;;;;;9.28;4.42;;;;;;;5.88;47.72;100788.04;1755251;80;21039;-69
2022/02/01 02:54:51;;;;;;;8.45;4.75;;;;;;;5.88;47.74;100788.04;1753710;80;21906;-70
2022/02/01 02:57:18;;;;;;;8.70;4.90;;;;;;;5.88;47.74;100787.62;1761564;80;21001;-70
2022/02/01 02:59:44;;;;;;;10.32;5.53;;;;;;;5.88;47.72;100789.33;1769750;80;21027;-69
2022/02/01 03:02:11;;;;;;;10.28;5.67;;;;;;;5.88;47.43;100788.91;1781465;80;21010;-70
2022/02/01 03:04:38;;;;;;;7.83;4.30;;;;;;;5.87;47.43;100782.05;1765606;80;21029;-70
2022/02/01 03:07:06;;;;;;;9.75;4.70;;;;;;;5.87;47.53;100783.75;1767455;80;21043;-70
2022/02/01 03:09:38;;;;;;;7.87;5.00;;;;;;;5.86;47.58;100790.63;1752251;81;21053;-70
2022/02/01 03:12:03;;;;;;;10.55;5.55;;;;;;;5.85;47.57;100794.09;1761181;80;21061;-70
2022/02/01 03:14:48;;;;;;;10.20;5.30;;;;;;;5.85;47.53;100790.64;1758999;80;21006;-70
2022/02/01 03:19:49;;;;;;;7.55;4.70;;;;;;;5.84;47.47;100791.06;1738025;80;21055;-70
2022/02/01 03:22:23;;;;;;;8.30;4.50;;;;;;;5.84;47.62;100792.36;1762377;80;21069;-69
2022/02/01 03:24:49;;;;;;;7.78;4.62;;;;;;;5.83;47.60;100795.79;1624511;86;21568;-69
2022/02/01 03:27:16;;;;;;;9.93;5.00;;;;;;;5.83;47.48;100800.95;1623769;86;21034;-70
2022/02/01 03:29:43;;;;;;;11.08;4.80;;;;;;;5.82;47.48;100806.97;1622969;86;21097;-69
2022/02/01 03:32:10;;;;;;;8.70;4.58;;;;;;;5.81;47.39;100803.97;1624279;86;21103;-69
2022/02/01 03:34:36;;;;;;;10.35;5.67;;;;;;;5.81;47.31;100803.97;1623439;86;21140;-70
2022/02/01 03:37:04;;;;;;;7.87;4.40;;;;;;;5.81;47.16;100801.39;1626515;87;21498;-70
2022/02/01 03:39:30;;;;;;;6.97;5.03;;;;;;;5.82;47.24;100799.22;1619507;86;21029;-70
2022/02/01 03:41:57;;;;;;;8.75;4.70;;;;;;;5.80;47.25;100803.52;1630359;86;21550;-70
2022/02/01 03:44:23;;;;;;;8.70;5.15;;;;;;;5.79;46.95;100806.95;1630188;86;21005;-69
2022/02/01 03:47:01;;;;;;;8.80;4.35;;;;;;;5.74;47.06;100809.99;1618552;87;21204;-70
2022/02/01 03:49:18;;;;;;;9.05;5.30;;;;;;;5.71;47.26;100799.66;1617788;86;21553;-70
2022/02/01 03:51:45;;;;;;;9.25;5.67;;;;;;;5.68;47.54;100793.22;1631505;87;21049;-70
2022/02/01 03:54:11;;;;;;;8.40;5.90;;;;;;;5.64;47.66;100796.67;1625324;86;21029;-69
2022/02/01 03:56:38;;;;;;;8.23;4.70;;;;;;;5.56;47.61;100794.07;1623924;85;21140;-70
2022/02/01 03:59:04;;;;;;;8.38;5.50;;;;;;;5.53;47.59;100795.80;1626810;85;21108;-70
2022/02/01 04:01:30;;;;;;;11.38;6.00;;;;;;;5.49;47.62;100797.96;1644793;82;21031;-70
2022/02/01 04:03:57;;;;;;;8.15;4.80;;;;;;;5.48;47.67;100807.88;1723937;82;21044;-69
2022/02/01 04:06:23;;;;;;;9.05;5.45;;;;;;;5.45;47.59;100809.14;1727323;82;21006;-70
2022/02/01 04:08:50;;;;;;;8.10;4.78;;;;;;;5.42;47.33;100816.91;1747670;81;21071;-70
2022/02/01 04:11:17;;;;;;;9.00;4.97;;;;;;;5.37;47.43;100813.03;1723695;81;21033;-71
2022/02/01 04:13:43;;;;;;;9.73;5.45;;;;;;;5.34;47.49;100812.14;1725626;82;21025;-70
2022/02/01 04:16:10;;;;;;;9.50;4.92;;;;;;;5.31;47.51;100807.00;1756596;80;21030;-70
2022/02/01 04:18:37;;;;;;;10.82;5.85;;;;;;;5.30;47.69;100801.39;1769277;80;21022;-70
2022/02/01 04:21:03;;;;;;;10.82;5.78;;;;;;;5.31;47.82;100807.00;1770526;80;21010;-70
2022/02/01 04:23:30;;;;;;;10.15;6.25;;;;;;;5.36;47.93;100813.00;1768667;80;21067;-69
2022/02/01 04:25:56;;;;;;;10.20;5.33;;;;;;;5.38;47.89;100804.41;1739276;80;21063;-70
2022/02/01 04:28:23;;;;;;;11.90;6.10;;;;;;;5.43;47.98;100803.13;1759919;80;21050;-69
2022/02/01 04:30:49;;;;;;;12.05;5.90;;;;;;;5.45;47.96;100802.70;1763018;80;21018;-70
2022/02/01 04:33:16;;;;;;;9.95;5.42;;;;;;;5.47;48.01;100803.13;1757510;80;21022;-70
2022/02/01 04:35:42;;;;;;;10.50;5.22;;;;;;;5.50;47.90;100806.98;1767473;80;21077;-70
2022/02/01 04:38:09;;;;;;;8.70;5.78;;;;;;;5.53;47.66;100806.13;1748977;80;21132;-70
2022/02/01 04:40:35;;;;;;;9.15;5.53;;;;;;;5.54;47.43;100803.54;1756521;80;21085;-69
2022/02/01 04:43:04;;;;;;;10.20;6.05;;;;;;;5.57;47.29;100803.98;1755390;80;21065;-70
2022/02/01 04:45:30;;;;;;;11.38;6.10;;;;;;;5.57;47.06;100794.94;1755640;81;21507;-69
2022/02/01 04:47:57;;;;;;;10.75;5.80;;;;;;;5.60;46.94;100802.70;1748492;80;21572;-69
2022/02/01 04:50:29;;;;;;;11.65;5.62;;;;;;;5.62;46.76;100798.39;1756536;80;21045;-70
2022/02/01 04:52:56;;;;;;;10.68;5.08;;;;;;;5.63;46.56;100789.77;1721976;80;21465;-70
2022/02/01 04:55:33;;;;;;;6.67;4.70;;;;;;;5.65;46.47;100797.08;1747062;80;21463;-69
2022/02/01 04:57:55;;;;;;;11.05;5.85;;;;;;;5.65;46.41;100796.66;1769628;80;21125;-70
2022/02/01 05:00:27;;;;;;;8.13;5.55;;;;;;;5.67;46.41;100808.27;1761431;80;20986;-69
2022/02/01 05:02:56;;;;;;;9.28;4.75;;;;;;;5.68;46.19;100812.16;1756256;80;20994;-69
2022/02/01 05:07:52;;;;;;;10.95;5.80;;;;;;;5.71;46.03;100819.02;1684279;83;21056;-70
2022/02/01 05:10:18;;;;;;;9.95;6.22;;;;;;;5.71;45.89;100826.76;1687193;84;21113;-70
2022/02/01 05:12:45;;;;;;;9.45;6.20;;;;;;;5.72;45.95;100831.08;1678612;84;21063;-70
2022/02/01 05:15:12;;;;;;;12.98;5.75;;;;;;;5.72;45.75;100843.98;1691893;83;21074;-70
2022/02/01 05:17:39;;;;;;;10.25;5.65;;;;;;;5.68;45.54;100853.89;1672485;84;21074;-70
2022/02/01 05:20:25;;;;;;;9.03;4.67;;;;;;;5.67;45.64;100850.86;1666487;84;21599;-69
2022/02/01 05:22:46;;;;;;;10.50;5.78;;;;;;;5.66;45.90;100840.13;1687125;84;21072;-70
2022/02/01 05:25:14;;;;;;;9.65;4.62;;;;;;;5.66;46.09;100835.83;1689574;84;21048;-69
2022/02/01 05:27:40;;;;;;;10.98;5.33;;;;;;;5.66;46.31;100834.96;1668252;84;21092;-71
2022/02/01 05:30:08;;;;;;;10.32;5.05;;;;;;;5.66;46.45;100824.21;1681006;84;21002;-70
2022/02/01 05:32:35;;;;;;;12.05;5.90;;;;;;;5.62;46.24;100830.23;1683228;84;21016;-69
2022/02/01 05:35:01;;;;;;;8.40;5.55;;;;;;;5.56;46.10;100837.12;1688596;84;21090;-70
2022/02/01 05:37:28;;;;;;;11.97;5.90;;;;;;;5.52;46.38;100834.11;1674831;84;21116;-69
2022/02/01 05:39:57;;;;;;;12.82;5.62;;;;;;;5.52;46.64;100834.11;1688387;83;21067;-70
2022/02/01 05:42:29;;;;;;;9.73;6.40;;;;;;;5.54;46.86;100840.13;1691115;84;21570;-70
2022/02/01 05:44:51;;;;;;;11.33;7.00;;;;;;;5.55;46.99;100845.70;1690684;84;21055;-70
2022/02/01 05:47:17;;;;;;;10.75;6.20;;;;;;;5.55;47.10;100848.28;1688010;84;21162;-69
2022/02/01 05:49:43;;;;;;;10.23;6.28;;;;;;;5.53;47.20;100855.17;1687617;84;21043;-70
2022/02/01 05:52:10;;;;;;;10.45;6.60;;;;;;;5.48;47.28;100853.03;1684498;84;21846;-69
2022/02/01 05:54:38;;;;;;;10.15;6.08;;;;;;;5.48;47.37;100844.00;1660677;84;21056;-70
2022/02/01 05:57:06;;;;;;;11.25;7.03;;;;;;;5.51;47.44;100846.56;1687778;83;21091;-70
2022/02/01 05:59:32;;;;;;;13.05;6.78;;;;;;;5.55;47.52;100848.28;1674821;84;21051;-70
2022/02/01 06:02:01;;;;;;;13.45;6.42;;;;;;;5.57;47.69;100843.56;1681022;84;21055;-70
2022/02/01 06:04:27;;;;;;;12.18;6.70;;;;;;;5.61;47.81;100852.16;1715052;80;21054;-70
2022/02/01 06:06:53;;;;;;;13.55;6.90;;;;;;;5.65;47.89;100856.45;1755447;80;21046;-70
2022/02/01 06:09:20;;;;;;;13.90;6.42;;;;;;;5.68;47.98;100864.21;1761752;80;21066;-70
2022/02/01 06:11:47;;;;;;;13.15;7.47;;;;;;;5.73;48.13;100863.77;1753383;81;21011;-71
2022/02/01 06:14:13;;;;;;;13.55;6.85;;;;;;;5.77;48.34;100871.94;1763001;80;21510;-70
2022/02/01 06:16:40;;;;;;;12.47;6.45;;;;;;;5.82;48.39;100870.65;1771042;80;21085;-70
2022/02/01 06:19:06;;;;;;;19.48;7.53;;;;;;;5.84;48.36;100876.70;1759269;80;21111;-69
2022/02/01 06:21:33;;;;;;;26.90;10.32;;;;;;;5.86;48.28;100888.77;1775165;80;21023;-70
2022/02/01 06:23:59;;;;;;;48.08;15.83;;;;;;;5.91;48.35;100890.06;1757864;80;21858;-70
2022/02/01 06:26:25;;;;;;;30.60;12.63;;;;;;;5.97;48.62;100899.95;1757624;80;21458;-69
2022/02/01 06:28:52;;;;;;;27.82;11.75;;;;;;;6.09;48.50;100912.86;1753947;80;20959;-70
2022/02/01 06:31:18;;;;;;;18.12;8.10;;;;;;;6.20;48.73;100908.52;1765163;80;20986;-70
2022/02/01 06:33:45;;;;;;;20.77;10.15;;;;;;;6.33;48.85;100908.94;1773348;80;21038;-69
2022/02/01 06:36:13;;;;;;;12.07;6.45;;;;;;;6.46;48.84;100910.64;1761808;80;21034;-70
2022/02/01 06:38:39;;;;;;;26.17;10.45;;;;;;;6.57;48.28;100911.91;1773422;80;21030;-70
2022/02/01 06:41:05;;;;;;;24.30;11.35;;;;;;;6.67;47.72;100915.31;1770754;80;21525;-69
2022/02/01 06:43:32;;;;;;;20.00;8.85;;;;;;;6.77;47.41;100914.41;1776743;80;21454;-69
2022/02/01 06:45:58;;;;;;;20.23;11.08;;;;;;;6.88;47.41;100914.81;1756491;80;20991;-69
2022/02/01 06:48:25;;;;;;;17.75;8.48;;;;;;;6.98;47.14;100915.20;1762277;80;20963;-70
2022/02/01 06:50:52;;;;;;;13.88;6.85;;;;;;;7.06;46.42;100916.02;1757470;80;21057;-70
2022/02/01 06:53:20;;;;;;;13.95;6.28;;;;;;;7.08;45.86;100921.17;1763907;80;20998;-70
2022/02/01 06:55:59;;;;;;;10.35;4.90;;;;;;;7.08;45.70;100922.04;1763027;80;21523;-70
2022/02/01 06:58:15;;;;;;;8.08;4.87;;;;;;;7.06;45.06;100925.50;1753704;80;21002;-69
2022/02/01 07:00:42;;;;;;;10.03;5.28;;;;;;;7.00;44.94;100925.52;1759491;80;20971;-69
2022/02/01 07:03:09;;;;;;;11.50;6.22;;;;;;;7.00;44.88;100935.88;1759231;80;21038;-71
2022/02/01 07:05:35;;;;;;;9.80;6.47;;;;;;;7.01;44.99;100943.62;1778251;80;21006;-69
2022/02/01 07:08:02;;;;;;;12.37;6.85;;;;;;;7.03;45.21;100938.43;1758927;80;21022;-70
2022/02/01 07:10:28;;;;;;;9.40;6.30;;;;;;;7.02;45.55;100944.06;1759713;80;21051;-69
2022/02/01 07:12:55;;;;;;;12.10;6.70;;;;;;;7.04;45.84;100950.52;1756818;80;21050;-70
2022/02/01 07:15:22;;;;;;;10.93;6.65;;;;;;;7.06;46.06;100952.66;1765152;80;21011;-70
2022/02/01 07:17:51;;;;;;;10.53;5.65;;;;;;;7.06;46.20;100962.59;1756377;80;21050;-69
2022/02/01 07:20:18;;;;;;;8.68;5.47;;;;;;;7.06;46.32;100959.13;1777056;80;21050;-69
2022/02/01 07:22:46;;;;;;;11.15;5.72;;;;;;;7.09;46.47;100965.60;1753247;80;20975;-69
2022/02/01 07:25:23;;;;;;;11.65;5.83;;;;;;;7.15;46.51;100970.75;1772393;80;21537;-69
2022/02/01 07:27:47;;;;;;;9.50;5.40;;;;;;;7.23;46.37;100972.87;1712714;82;21066;-70
2022/02/01 07:30:12;;;;;;;11.75;5.17;;;;;;;7.30;46.29;100971.95;1715503;81;21563;-69
2022/02/01 07:32:39;;;;;;;10.23;5.12;;;;;;;7.37;46.27;100971.93;1729255;82;21114;-70
2022/02/01 07:35:07;;;;;;;11.48;7.30;;;;;;;7.45;46.15;100973.17;1712871;82;21101;-70
2022/02/01 07:37:34;;;;;;;13.83;7.87;;;;;;;7.50;46.12;100975.28;1724446;81;21495;-69
2022/02/01 07:40:02;;;;;;;12.13;7.12;;;;;;;7.56;46.04;100975.28;1725221;82;21057;-70
2022/02/01 07:42:29;;;;;;;12.70;8.35;;;;;;;7.62;46.00;100983.01;1720911;82;21051;-69
2022/02/01 07:45:01;;;;;;;9.95;7.65;;;;;;;7.64;45.76;100982.56;1732201;81;21057;-70
2022/02/01 07:47:26;;;;;;;11.08;6.83;;;;;;;7.66;45.69;100987.30;1712848;81;20990;-70
2022/02/01 07:49:53;;;;;;;8.75;5.22;;;;;;;7.66;45.36;100986.42;1710945;81;21058;-71
2022/02/01 07:52:19;;;;;;;11.93;5.70;;;;;;;7.64;44.85;100981.27;1705356;82;20987;-70
2022/02/01 07:54:46;;;;;;;8.50;5.67;;;;;;;7.61;44.57;100990.34;1713567;82;21115;-70
2022/02/01 07:57:13;;;;;;;11.12;5.28;;;;;;;7.56;44.52;100995.12;1723123;81;21074;-70
2022/02/01 07:59:40;;;;;;;8.25;5.05;;;;;;;7.54;44.68;100995.14;1708848;82;21045;-70
2022/02/01 08:02:17;;;;;;;9.30;5.58;;;;;;;7.56;44.43;101001.17;1712674;81;21050;-69
2022/02/01 08:04:37;;;;;;;10.65;5.25;;;;;;;7.54;44.44;100994.27;1713972;81;21055;-71
2022/02/01 08:07:03;;;;;;;8.83;4.95;;;;;;;7.50;44.76;100997.29;1718743;82;21576;-70
2022/02/01 08:09:36;;;;;;;7.15;5.12;;;;;;;7.49;44.80;100996.88;1720685;81;21660;-69
2022/02/01 08:12:05;;;;;;;10.00;4.62;;;;;;;7.44;44.74;100996.03;1705540;81;21055;-70
2022/02/01 08:17:16;;;;;;;12.23;5.22;;;;;;;7.35;44.52;100993.08;1709763;81;21711;-70
2022/02/01 08:19:53;;;;;;;8.23;4.33;;;;;;;7.37;44.85;100999.54;1713506;81;21031;-70
2022/02/01 08:22:19;;;;;;;8.13;5.35;;;;;;;7.43;44.84;101004.69;1700731;81;21578;-70
2022/02/01 08:24:35;;;;;;;10.35;5.20;;;;;;;7.42;44.63;101005.53;1735106;81;21018;-69
2022/02/01 08:27:01;;;;;;;12.65;5.55;;;;;;;7.39;44.84;101012.04;1756845;81;21007;-70
2022/02/01 08:29:28;;;;;;;9.05;4.97;;;;;;;7.40;44.90;101009.86;1761137;80;21031;-70
2022/02/01 08:31:54;;;;;;;9.10;5.72;;;;;;;7.41;45.10;101006.42;1768267;80;21010;-70
2022/02/01 08:34:21;;;;;;;9.08;5.72;;;;;;;7.40;45.35;101004.69;1768812;80;21027;-70
2022/02/01 08:36:47;;;;;;;8.50;5.85;;;;;;;7.37;45.56;101000.41;1757505;80;21561;-70
2022/02/01 08:39:14;;;;;;;9.58;6.00;;;;;;;7.35;45.76;100996.09;1767804;80;21042;-70
2022/02/01 08:41:41;;;;;;;10.68;5.70;;;;;;;7.32;45.81;100998.69;1750089;80;21027;-70
2022/02/01 08:44:08;;;;;;;11.88;6.30;;;;;;;7.30;45.79;100995.25;1696050;83;21053;-70
2022/02/01 08:46:34;;;;;;;9.55;6.37;;;;;;;7.28;45.70;100998.27;1762056;80;21065;-69
2022/02/01 08:49:01;;;;;;;11.55;7.42;;;;;;;7.26;45.37;101004.76;1739999;80;21033;-70
2022/02/01 08:51:37;;;;;;;15.45;7.85;;;;;;;7.23;44.46;101004.75;1742292;80;20995;-71
2022/02/01 08:53:58;;;;;;;13.03;7.75;;;;;;;7.22;44.09;101011.24;1751529;80;21497;-70
2022/02/01 08:59:09;;;;;;;10.15;6.67;;;;;;;7.25;43.89;101015.12;1754183;80;21012;-70
2022/02/01 09:01:35;;;;;;;22.42;7.58;;;;;;;7.27;43.68;101013.39;1752471;81;21070;-70
2022/02/01 09:04:02;;;;;;;16.25;7.33;;;;;;;7.29;43.78;101016.83;1748597;81;21042;-70
2022/02/01 09:06:29;;;;;;;10.80;6.75;;;;;;;7.29;43.66;101019.42;1753984;80;21482;-71
2022/02/01 09:08:55;;;;;;;10.65;6.80;;;;;;;7.29;43.66;101019.42;1752594;80;21058;-70
2022/02/01 09:11:22;;;;;;;11.12;6.75;;;;;;;7.30;43.45;101015.95;1751301;80;20974;-69
2022/02/01 09:13:49;;;;;;;10.78;6.45;;;;;;;7.30;43.31;101013.36;1743734;80;21007;-70
2022/02/01 09:16:20;;;;;;;11.40;6.45;;;;;;;7.32;43.26;101006.45;1764502;80;21054;-70
2022/02/01 09:18:45;;;;;;;11.90;6.53;;;;;;;7.33;43.19;100993.95;1753933;80;21012;-70
2022/02/01 09:21:12;;;;;;;10.25;6.47;;;;;;;7.35;43.32;100996.09;1761605;80;21560;-69
2022/02/01 09:23:39;;;;;;;12.25;6.85;;;;;;;7.38;43.13;100996.94;1757961;80;21499;-69
2022/02/01 09:26:06;;;;;;;11.50;6.85;;;;;;;7.44;43.22;100990.86;1760205;80;21049;-70
2022/02/01 09:28:34;;;;;;;14.40;7.70;;;;;;;7.51;42.47;100987.38;1751566;80;21006;-69
2022/02/01 09:31:01;;;;;;;11.05;6.08;;;;;;;7.55;42.21;100990.38;1761378;80;21581;-70
2022/02/01 09:33:30;;;;;;;10.45;6.78;;;;;;;7.60;42.45;100987.34;1761145;80;21494;-69
2022/02/01 09:35:56;;;;;;;12.37;6.83;;;;;;;7.66;42.49;100987.30;1767756;80;21446;-68
2022/02/01 09:38:23;;;;;;;11.63;6.35;;;;;;;7.72;42.71;100987.25;1746438;81;21016;-69
2022/02/01 09:40:49;;;;;;;11.60;6.25;;;;;;;7.80;42.43;100983.31;1744203;80;21016;-70
2022/02/01 09:43:17;;;;;;;9.03;6.08;;;;;;;7.86;42.17;100990.61;1751618;80;21026;-69
2022/02/01 09:45:43;;;;;;;9.50;6.85;;;;;;;7.87;41.75;100984.54;1752982;80;21085;-69
2022/02/01 09:48:10;;;;;;;12.65;7.60;;;;;;;7.84;41.73;100974.22;1753937;80;21078;-68
2022/02/01 09:50:37;;;;;;;14.45;8.45;;;;;;;7.81;42.06;100967.75;1756616;80;21031;-69
2022/02/01 09:53:04;;;;;;;12.47;7.75;;;;;;;7.81;42.27;100965.16;1748236;80;21082;-69
2022/02/01 09:55:30;;;;;;;10.08;7.35;;;;;;;7.82;42.29;100973.37;1744406;81;21121;-69
2022/02/01 09:57:58;;;;;;;12.28;7.97;;;;;;;7.87;42.32;100982.41;1754335;80;21097;-69
2022/02/01 10:00:35;;;;;;;17.12;7.87;;;;;;;7.93;42.56;100981.90;1758226;80;21015;-69
2022/02/01 10:03:03;;;;;;;12.18;8.20;;;;;;;8.02;42.45;100973.20;1759275;80;21006;-69
2022/02/01 10:05:31;;;;;;;10.48;6.92;;;;;;;8.08;42.23;100964.95;1751094;80;21116;-69
2022/02/01 10:07:58;;;;;;;13.80;7.65;;;;;;;8.12;41.75;100960.16;1755903;81;21554;-69
2022/02/01 10:10:30;;;;;;;13.48;8.03;;;;;;;8.09;41.39;100962.80;1759347;80;21018;-69
2022/02/01 10:13:09;;;;;;;12.35;7.87;;;;;;;8.07;41.25;100956.77;1758039;80;21030;-69
2022/02/01 10:15:34;;;;;;;17.50;11.83;;;;;;;8.09;41.45;100951.56;1713607;82;21052;-70
2022/02/01 10:18:03;;;;;;;13.43;9.95;;;;;;;8.11;41.51;100954.57;1711366;84;21007;-69
2022/02/01 10:20:42;;;;;;;12.28;8.68;;;;;;;8.13;41.47;100950.23;1711645;84;21086;-69
2022/02/01 10:23:24;;;;;;;16.70;8.98;;;;;;;8.15;41.58;100949.78;1711500;84;21035;-69
2022/02/01 10:26:16;;;;;;;13.68;10.00;;;;;;;8.18;41.51;100954.92;1671558;85;21177;-70
2022/02/01 10:29:12;;;;;;;15.95;10.93;;;;;;;8.26;41.58;100956.63;1609910;87;21109;-69
2022/02/01 10:31:47;;;;;;;20.40;13.48;;;;;;;8.33;41.53;100954.39;1613957;87;21071;-69
2022/02/01 10:34:28;;;;;;;20.08;12.53;;;;;;;8.40;41.54;100946.98;1616786;87;21053;-69
2022/02/01 10:37:01;;;;;;;14.15;9.80;;;;;;;8.44;41.19;100949.55;1625825;86;21088;-69
2022/02/01 10:39:29;;;;;;;12.73;8.83;;;;;;;8.46;41.28;100946.92;1622859;87;21090;-70
2022/02/01 10:42:02;;;;;;;14.50;8.20;;;;;;;8.51;41.26;100952.94;1617686;87;21028;-69
2022/02/01 10:44:45;;;;;;;15.58;8.43;;;;;;;8.56;41.26;100957.62;1612388;87;21075;-71
2022/02/01 10:47:20;;;;;;;16.65;8.18;;;;;;;8.62;41.14;100967.93;1611060;88;21037;-70
2022/02/01 10:49:46;;;;;;;14.03;8.30;;;;;;;8.66;40.85;100969.62;1618689;87;21065;-69
2022/02/01 10:52:14;;;;;;;11.85;7.90;;;;;;;8.67;40.88;100964.87;1644017;87;21086;-69
2022/02/01 10:54:43;;;;;;;14.65;8.80;;;;;;;8.65;40.84;100962.30;1617462;88;21539;-68
2022/02/01 10:57:11;;;;;;;13.72;8.20;;;;;;;8.64;41.09;100955.37;1617548;88;21261;-70
2022/02/01 10:59:38;;;;;;;13.18;8.13;;;;;;;8.66;41.34;100950.16;1581265;90;21070;-69
2022/02/01 11:02:05;;;;;;;16.30;9.15;;;;;;;8.66;41.26;100941.95;1577685;91;21084;-68
2022/02/01 11:04:36;;;;;;;13.90;8.38;;;;;;;8.69;41.26;100942.36;1569486;89;21148;-69
2022/02/01 11:07:04;;;;;;;13.40;7.63;;;;;;;8.72;41.28;100942.31;1682793;85;21063;-69
2022/02/01 11:09:32;;;;;;;12.55;7.55;;;;;;;8.76;41.16;100942.70;1682252;85;21083;-70
2022/02/01 11:12:10;;;;;;;12.20;6.80;;;;;;;8.82;41.13;100932.28;1684221;84;21554;-70
2022/02/01 11:14:42;;;;;;;12.93;6.70;;;;;;;8.91;40.56;100936.05;1651670;86;21094;-69
2022/02/01 11:17:13;;;;;;;9.98;6.15;;;;;;;8.99;40.11;100930.31;1551114;91;21065;-69
2022/02/01 11:19:53;;;;;;;9.83;6.05;;;;;;;9.08;39.87;100930.21;1464637;98;21187;-69
2022/02/01 11:22:25;;;;;;;8.38;5.10;;;;;;;9.16;39.53;100931.40;1458151;98;21150;-69
2022/02/01 11:24:59;;;;;;;13.95;5.87;;;;;;;9.22;38.91;100932.19;1464888;97;21170;-69
2022/02/01 11:27:40;;;;;;;11.25;5.75;;;;;;;9.29;38.73;100930.37;1467836;97;21097;-69
2022/02/01 11:30:11;;;;;;;12.40;8.30;;;;;;;9.34;38.88;100925.95;1462468;97;21079;-69
2022/02/01 11:32:49;;;;;;;14.85;10.05;;;;;;;9.39;39.41;100926.33;1468625;95;21098;-69
2022/02/01 11:35:24;;;;;;;15.25;10.72;;;;;;;9.37;39.83;100917.70;1423059;99;21188;-69
2022/02/01 11:38:18;;;;;;;22.40;12.47;;;;;;;9.31;40.24;100919.09;1434799;99;21605;-69
2022/02/01 11:40:48;;;;;;;12.05;8.08;;;;;;;9.25;40.10;100926.96;1405071;100;21203;-70
2022/02/01 11:43:17;;;;;;;19.87;12.93;;;;;;;9.19;39.84;100926.18;1406332;100;21186;-69
2022/02/01 11:45:54;;;;;;;20.60;13.88;;;;;;;9.17;40.04;100922.28;1401951;100;21133;-69
2022/02/01 11:48:31;;;;;;;25.25;14.68;;;;;;;9.17;40.18;100928.77;1401674;101;21144;-69
2022/02/01 11:51:10;;;;;;;22.40;14.13;;;;;;;9.16;40.65;100927.50;1396255;101;21154;-70
2022/02/01 11:53:41;;;;;;;14.47;9.25;;;;;;;9.07;40.94;100919.39;1410958;100;21137;-68
2022/02/01 11:56:10;;;;;;;13.73;8.63;;;;;;;8.98;41.21;100922.13;1411512;100;21138;-69
2022/02/01 11:58:42;;;;;;;14.60;9.18;;;;;;;8.85;41.31;100921.41;1401010;101;21730;-70
2022/02/01 12:01:24;;;;;;;13.20;10.45;;;;;;;8.72;41.55;100923.72;1406803;101;21226;-70
2022/02/01 12:04:10;;;;;;;16.27;10.58;;;;;;;8.62;41.79;100922.54;1344679;106;21617;-68
2022/02/01 12:06:44;;;;;;;17.20;10.53;;;;;;;8.51;41.95;100915.34;1346819;102;21141;-69
2022/02/01 12:09:16;;;;;;;13.65;10.35;;;;;;;8.44;42.23;100909.78;1305245;108;22453;-69
2022/02/01 12:11:42;;;;;;;12.65;8.50;;;;;;;8.39;42.27;100918.89;1283179;109;21183;-69
2022/02/01 12:14:09;;;;;;;19.37;11.57;;;;;;;8.37;42.21;100923.67;1380712;101;21143;-69
2022/02/01 12:16:35;;;;;;;15.85;11.28;;;;;;;8.31;42.35;100923.73;1437342;98;21210;-69
2022/02/01 12:19:06;;;;;;;17.95;12.88;;;;;;;8.27;42.53;100924.64;1484436;96;21139;-69
2022/02/01 12:21:59;;;;;;;20.60;13.15;;;;;;;8.24;42.85;100921.16;1487221;95;21060;-69
2022/02/01 12:24:26;;;;;;;25.82;17.15;;;;;;;8.26;43.26;100922.94;1485475;93;21140;-69
2022/02/01 12:26:54;;;;;;;23.40;16.05;;;;;;;8.29;43.69;100928.94;1478335;96;21104;-69
2022/02/01 12:29:21;;;;;;;31.02;15.03;;;;;;;8.32;43.94;100929.35;1475419;95;21552;-68
2022/02/01 12:31:48;;;;;;;21.90;13.78;;;;;;;8.37;43.89;100930.15;1494915;94;21652;-68
2022/02/01 12:34:17;;;;;;;20.88;11.80;;;;;;;8.43;44.04;100936.60;1499400;95;21100;-69
2022/02/01 12:36:49;;;;;;;15.72;12.23;;;;;;;8.47;42.72;100942.17;1503311;94;21077;-69
2022/02/01 12:39:22;;;;;;;20.45;12.45;;;;;;;8.50;42.58;100940.40;1492010;95;21111;-68
2022/02/01 12:41:56;;;;;;;17.67;11.77;;;;;;;8.52;42.66;100944.27;1500580;95;21096;-68
2022/02/01 12:46:54;;;;;;;14.80;10.10;;;;;;;8.53;42.75;100940.35;1503106;93;21512;-69
2022/02/01 12:49:37;;;;;;;17.50;10.35;;;;;;;8.53;42.11;100943.41;1494495;94;21642;-69
2022/02/01 12:52:06;;;;;;;;;;;;;;;8.52;41.93;100941.24;1489986;95;21137;-71
2022/02/01 12:54:37;;;;;;;14.47;7.80;;;;;;;8.49;42.06;100941.72;1501251;95;20116;-70
2022/02/01 12:57:15;;;;;;;14.60;8.63;;;;;;;8.46;42.20;100944.33;1491598;95;21129;-69